createdAt,value
2018-04-28T00:01:26.784Z,93964.64
2018-04-28T00:03:54.524Z,93968.19
2018-04-28T00:06:22.963Z,93965.70
2018-04-28T00:08:50.804Z,93970.47
2018-04-28T00:11:18.473Z,93968.53
2018-04-28T00:13:46.189Z,93971.98
2018-04-28T00:16:16.832Z,93967.61
2018-04-28T00:18:47.144Z,93967.67
2018-04-28T00:21:14.802Z,93976.16
2018-04-28T00:23:44.361Z,93975.41
2018-04-28T00:26:11.999Z,93979.96
2018-04-28T00:28:58.214Z,93979.72
2018-04-28T00:31:32.110Z,93979.72
2018-04-28T00:34:01.583Z,93978.34
2018-04-28T00:37:03.747Z,93985.13
2018-04-28T00:39:34.998Z,93984.27
2018-04-28T00:42:02.692Z,93983.66
2018-04-28T00:44:31.030Z,93989.25
2018-04-28T00:46:59.625Z,93987.75
2018-04-28T00:49:34.052Z,93980.42
2018-04-28T00:52:01.783Z,93983.09
2018-04-28T00:54:34.392Z,93983.51
2018-04-28T00:57:23.556Z,93978.66
2018-04-28T00:59:57.879Z,93984.78
2018-04-28T01:02:25.625Z,93985.49
2018-04-28T01:04:53.322Z,93985.80
2018-04-28T01:07:22.556Z,93985.55
2018-04-28T01:10:00.848Z,93983.27
2018-04-28T01:12:43.605Z,93986.84
2018-04-28T01:15:14.926Z,93991.84
2018-04-28T01:18:01.131Z,93991.02
2018-04-28T01:20:30.949Z,93992.52
2018-04-28T01:23:07.801Z,93993.61
2018-04-28T01:25:53.406Z,93989.52
2018-04-28T01:28:28.913Z,93986.83
2018-04-28T01:31:01.255Z,93986.77
2018-04-28T01:33:48.497Z,93990.18
2018-04-28T01:36:33.582Z,93989.77
2018-04-28T01:39:08.979Z,93998.89
2018-04-28T01:41:48.372Z,93999.33
2018-04-28T01:44:28.168Z,93997.40
2018-04-28T01:46:56.642Z,94004.39
2018-04-28T01:52:35.110Z,94003.80
2018-04-28T01:55:05.023Z,94015.70
2018-04-28T01:57:53.277Z,94003.78
2018-04-28T02:00:39.430Z,94007.39
2018-04-28T02:03:14.995Z,94008.06
2018-04-28T02:05:49.384Z,94005.86
2018-04-28T02:08:17.866Z,94007.67
2018-04-28T02:10:53.261Z,94012.13
2018-04-28T02:13:29.119Z,94010.23
2018-04-28T02:16:02.522Z,94015.52
2018-04-28T02:21:43.735Z,94022.58
2018-04-28T02:24:13.290Z,94023.56
2018-04-28T02:26:40.961Z,94026.27
2018-04-28T02:29:14.663Z,94032.64
2018-04-28T02:31:50.954Z,94029.39
2018-04-28T02:34:25.820Z,94022.98
2018-04-28T02:36:58.807Z,94027.02
2018-04-28T02:39:28.388Z,94017.56
2018-04-28T02:42:16.452Z,94019.61
2018-04-28T02:44:44.904Z,94022.70
2018-04-28T02:47:25.235Z,94019.30
2018-04-28T02:50:01.670Z,94017.22
2018-04-28T02:52:39.091Z,94029.50
2018-04-28T02:58:20.716Z,94030.64
2018-04-28T03:03:51.034Z,94038.26
2018-04-28T03:06:22.471Z,94045.55
2018-04-28T03:08:51.022Z,94047.94
2018-04-28T03:11:18.724Z,94049.97
2018-04-28T03:13:50.922Z,94048.54
2018-04-28T03:19:16.288Z,94055.52
2018-04-28T03:21:49.579Z,94054.86
2018-04-28T03:24:24.832Z,94059.10
2018-04-28T03:27:10.925Z,94060.89
2018-04-28T03:29:50.404Z,94062.70
2018-04-28T03:32:18.124Z,94058.93
2018-04-28T03:34:46.649Z,94066.66
2018-04-28T03:37:27.353Z,94064.78
2018-04-28T03:40:01.898Z,94062.50
2018-04-28T03:42:36.323Z,94063.50
2018-04-28T03:45:04.033Z,94068.55
2018-04-28T03:47:44.097Z,94062.71
2018-04-28T03:50:31.712Z,94075.31
2018-04-28T03:53:06.153Z,94073.33
2018-04-28T03:55:34.737Z,94077.40
2018-04-28T03:58:14.084Z,94076.59
2018-04-28T04:00:53.498Z,94080.57
2018-04-28T04:03:22.092Z,94074.51
2018-04-28T04:06:06.187Z,94077.70
2018-04-28T04:08:37.898Z,94079.20
2018-04-28T04:11:17.286Z,94070.45
2018-04-28T04:13:56.594Z,94072.23
2018-04-28T04:16:48.743Z,94078.18
2018-04-28T04:19:22.501Z,94076.39
2018-04-28T04:24:48.771Z,94079.28
2018-04-28T04:27:30.964Z,94080.17
2018-04-28T04:30:21.463Z,94079.00
2018-04-28T04:33:09.677Z,94074.91
2018-04-28T04:35:42.857Z,94076.92
2018-04-28T04:38:29.066Z,94080.97
2018-04-28T04:41:03.251Z,94073.63
2018-04-28T04:43:39.784Z,94086.73
2018-04-28T04:49:19.849Z,94093.80
2018-04-28T04:51:56.923Z,94095.19
2018-04-28T04:54:43.328Z,94093.50
2018-04-28T04:57:23.747Z,94096.45
2018-04-28T04:59:57.131Z,94095.27
2018-04-28T05:02:46.808Z,94094.90
2018-04-28T05:08:36.323Z,94098.97
2018-04-28T05:11:32.478Z,94101.20
2018-04-28T05:17:10.502Z,94093.92
2018-04-28T05:19:53.141Z,94100.73
2018-04-28T05:25:27.370Z,94103.17
2018-04-28T05:28:19.614Z,94104.15
2018-04-28T05:30:59.173Z,94099.91
2018-04-28T05:33:39.424Z,94107.00
2018-04-28T05:36:19.258Z,94106.34
2018-04-28T05:39:17.445Z,94105.61
2018-04-28T05:41:56.974Z,94106.52
2018-04-28T05:44:47.374Z,94104.32
2018-04-28T05:47:21.908Z,94105.75
2018-04-28T05:50:09.655Z,94106.12
2018-04-28T05:52:49.103Z,94104.06
2018-04-28T05:55:41.655Z,94104.83
2018-04-28T05:58:13.168Z,94103.78
2018-04-28T06:00:53.010Z,94106.27
2018-04-28T06:06:37.434Z,94104.12
2018-04-28T06:09:26.485Z,94104.73
2018-04-28T06:15:32.664Z,94098.69
2018-04-28T06:18:09.844Z,94095.44
2018-04-28T06:20:41.385Z,94095.20
2018-04-28T06:23:08.991Z,94094.02
2018-04-28T06:25:37.133Z,94095.51
2018-04-28T06:28:05.000Z,94093.94
2018-04-28T06:30:32.871Z,94090.86
2018-04-28T06:33:02.561Z,94090.22
2018-04-28T06:35:30.648Z,94091.20
2018-04-28T06:37:58.341Z,94088.77
2018-04-28T06:40:26.264Z,94084.38
2018-04-28T06:42:54.352Z,94085.85
2018-04-28T06:45:22.239Z,94083.96
2018-04-28T06:47:50.186Z,94080.66
2018-04-28T06:50:18.174Z,94077.02
2018-04-28T06:52:46.440Z,94077.81
2018-04-28T06:55:14.437Z,94074.31
2018-04-28T06:57:42.529Z,94068.77
2018-04-28T07:00:10.708Z,94067.02
2018-04-28T07:02:38.514Z,94070.27
2018-04-28T07:05:06.697Z,94070.52
2018-04-28T07:07:34.719Z,94064.75
2018-04-28T07:10:02.851Z,94068.69
2018-04-28T07:12:30.765Z,94065.43
2018-04-28T07:14:58.558Z,94063.58
2018-04-28T07:17:26.439Z,94057.34
2018-04-28T07:19:54.099Z,94055.87
2018-04-28T07:22:22.043Z,94045.84
2018-04-28T07:24:50.264Z,94046.05
2018-04-28T07:27:17.891Z,94047.78
2018-04-28T07:29:45.674Z,94040.55
2018-04-28T07:32:13.444Z,94043.94
2018-04-28T07:34:41.102Z,94039.52
2018-04-28T07:37:08.798Z,94032.27
2018-04-28T07:39:36.633Z,94039.84
2018-04-28T07:42:04.405Z,94039.94
2018-04-28T07:44:32.531Z,94030.06
2018-04-28T07:47:00.333Z,94024.02
2018-04-28T07:49:28.344Z,94017.72
2018-04-28T07:51:56.067Z,94023.11
2018-04-28T07:54:24.125Z,94018.61
2018-04-28T07:56:52.049Z,94018.49
2018-04-28T07:59:20.166Z,94016.23
2018-04-28T08:01:47.851Z,94011.11
2018-04-28T08:04:15.716Z,94000.38
2018-04-28T08:06:43.464Z,93996.20
2018-04-28T08:09:11.340Z,93997.09
2018-04-28T08:11:39.210Z,93995.13
2018-04-28T08:14:07.867Z,93984.25
2018-04-28T08:16:35.801Z,93986.38
2018-04-28T08:19:03.536Z,93979.45
2018-04-28T08:21:31.292Z,93973.80
2018-04-28T08:23:59.066Z,93970.39
2018-04-28T08:26:26.798Z,93971.20
2018-04-28T08:28:54.486Z,93964.14
2018-04-28T08:31:22.250Z,93964.96
2018-04-28T08:33:50.009Z,93961.95
2018-04-28T08:36:17.763Z,93962.64
2018-04-28T08:38:45.529Z,93960.05
2018-04-28T08:41:14.136Z,93961.32
2018-04-28T08:43:41.998Z,93959.73
2018-04-28T08:46:09.593Z,93956.40
2018-04-28T08:48:37.415Z,93950.77
2018-04-28T08:51:05.237Z,93950.60
2018-04-28T08:53:32.948Z,93939.28
2018-04-28T08:56:00.802Z,93937.04
2018-04-28T08:58:28.681Z,93939.51
2018-04-28T09:01:02.496Z,93929.50
2018-04-28T09:03:30.129Z,93922.55
2018-04-28T09:05:57.789Z,93918.45
2018-04-28T09:08:25.849Z,93918.09
2018-04-28T09:10:53.650Z,93917.56
2018-04-28T09:13:21.322Z,93912.00
2018-04-28T09:15:49.583Z,93908.17
2018-04-28T09:18:17.525Z,93905.70
2018-04-28T09:20:45.863Z,93904.42
2018-04-28T09:23:13.596Z,93901.96
2018-04-28T09:25:41.576Z,93899.12
2018-04-28T09:28:09.235Z,93890.61
2018-04-28T09:30:37.863Z,93894.89
2018-04-28T09:33:05.659Z,93896.00
2018-04-28T09:35:33.450Z,93889.03
2018-04-28T09:38:02.161Z,93885.23
2018-04-28T09:40:30.575Z,93876.56
2018-04-28T09:42:58.473Z,93878.36
2018-04-28T09:45:26.635Z,93866.97
2018-04-28T09:47:54.336Z,93869.09
2018-04-28T09:50:22.020Z,93865.97
2018-04-28T09:52:50.554Z,93868.19
2018-04-28T09:55:18.433Z,93863.35
2018-04-28T09:57:57.787Z,93859.02
2018-04-28T10:00:46.027Z,93852.04
2018-04-28T10:03:28.626Z,93854.09
2018-04-28T10:05:56.250Z,93840.65
2018-04-28T10:08:23.918Z,93831.10
2018-04-28T10:10:51.574Z,93828.05
2018-04-28T10:13:19.267Z,93821.39
2018-04-28T10:15:47.156Z,93821.06
2018-04-28T10:18:14.795Z,93818.27
2018-04-28T10:20:42.590Z,93821.82
2018-04-28T10:23:10.190Z,93814.66
2018-04-28T10:25:37.799Z,93808.58
2018-04-28T10:28:05.465Z,93804.03
2018-04-28T10:30:33.134Z,93789.51
2018-04-28T10:33:00.731Z,93787.45
2018-04-28T10:35:28.400Z,93782.14
2018-04-28T10:37:56.086Z,93782.16
2018-04-28T10:40:23.704Z,93779.64
2018-04-28T10:42:51.369Z,93775.80
2018-04-28T10:45:19.094Z,93774.39
2018-04-28T10:47:47.809Z,93764.25
2018-04-28T10:50:15.634Z,93758.58
2018-04-28T10:52:43.914Z,93753.00
2018-04-28T10:55:11.585Z,93748.54
2018-04-28T10:57:39.207Z,93746.02
2018-04-28T11:00:06.895Z,93739.36
2018-04-28T11:02:34.540Z,93734.72
2018-04-28T11:05:02.267Z,93733.19
2018-04-28T11:07:29.906Z,93737.53
2018-04-28T11:09:57.566Z,93725.80
2018-04-28T11:12:25.224Z,93723.19
2018-04-28T11:14:52.820Z,93716.90
2018-04-28T11:17:20.466Z,93711.00
2018-04-28T11:19:48.159Z,93711.56
2018-04-28T11:22:15.773Z,93704.69
2018-04-28T11:24:43.441Z,93706.19
2018-04-28T11:27:11.098Z,93705.55
2018-04-28T11:29:38.770Z,93706.58
2018-04-28T11:32:07.091Z,93698.28
2018-04-28T11:34:34.910Z,93697.82
2018-04-28T11:37:02.933Z,93694.26
2018-04-28T11:39:30.595Z,93688.75
2018-04-28T11:41:58.243Z,93685.60
2018-04-28T11:44:25.952Z,93683.24
2018-04-28T11:46:54.003Z,93671.97
2018-04-28T11:49:21.787Z,93674.66
2018-04-28T11:51:49.465Z,93675.45
2018-04-28T11:54:17.123Z,93666.05
2018-04-28T11:56:44.943Z,93669.69
2018-04-28T11:59:12.819Z,93666.77
2018-04-28T12:01:40.420Z,93666.11
2018-04-28T12:04:08.284Z,93663.67
2018-04-28T12:06:36.002Z,93662.43
2018-04-28T12:09:04.122Z,93654.89
2018-04-28T12:11:31.988Z,93652.87
2018-04-28T12:13:59.828Z,93650.72
2018-04-28T12:16:27.436Z,93651.61
2018-04-28T12:18:55.093Z,93656.30
2018-04-28T12:21:22.962Z,93654.78
2018-04-28T12:23:50.616Z,93653.25
2018-04-28T12:26:18.538Z,93653.16
2018-04-28T12:28:46.343Z,93646.30
2018-04-28T12:31:14.212Z,93646.33
2018-04-28T12:33:41.917Z,93638.89
2018-04-28T12:36:09.739Z,93642.18
2018-04-28T12:38:38.595Z,93637.81
2018-04-28T12:41:06.497Z,93633.23
2018-04-28T12:43:34.451Z,93625.73
2018-04-28T12:46:02.140Z,93622.19
2018-04-28T12:48:30.091Z,93617.60
2018-04-28T12:50:57.732Z,93626.27
2018-04-28T12:53:25.416Z,93619.75
2018-04-28T12:55:53.286Z,93615.31
2018-04-28T12:58:21.016Z,93621.72
2018-04-28T13:00:48.685Z,93614.59
2018-04-28T13:03:16.344Z,93618.58
2018-04-28T13:05:43.940Z,93611.58
2018-04-28T13:08:11.708Z,93614.31
2018-04-28T13:10:39.368Z,93608.75
2018-04-28T13:13:07.723Z,93609.20
2018-04-28T13:15:35.347Z,93609.02
2018-04-28T13:18:03.084Z,93598.48
2018-04-28T13:20:30.842Z,93599.27
2018-04-28T13:22:58.591Z,93588.95
2018-04-28T13:25:26.714Z,93582.05
2018-04-28T13:27:55.076Z,93586.81
2018-04-28T13:30:22.803Z,93587.27
2018-04-28T13:32:50.685Z,93577.44
2018-04-28T13:35:18.445Z,93579.98
2018-04-28T13:37:46.151Z,93577.34
2018-04-28T13:40:14.085Z,93581.20
2018-04-28T13:42:41.748Z,93572.14
2018-04-28T13:45:09.366Z,93571.56
2018-04-28T13:47:37.061Z,93563.14
2018-04-28T13:50:05.787Z,93577.00
2018-04-28T13:52:33.426Z,93566.56
2018-04-28T13:55:01.173Z,93569.27
2018-04-28T13:57:28.842Z,93573.70
2018-04-28T13:59:56.443Z,93572.90
2018-04-28T14:02:24.102Z,93571.86
2018-04-28T14:04:51.910Z,93573.34
2018-04-28T14:07:19.522Z,93573.49
2018-04-28T14:09:47.342Z,93580.78
2018-04-28T14:12:14.935Z,93572.17
2018-04-28T14:14:42.580Z,93576.41
2018-04-28T14:17:10.549Z,93570.73
2018-04-28T14:19:38.222Z,93569.18
2018-04-28T14:22:05.816Z,93566.81
2018-04-28T14:24:33.803Z,93565.39
2018-04-28T14:27:01.524Z,93566.86
2018-04-28T14:29:29.217Z,93568.39
2018-04-28T14:31:57.041Z,93568.31
2018-04-28T14:34:25.322Z,93568.09
2018-04-28T14:36:53.082Z,93568.94
2018-04-28T14:39:20.699Z,93561.16
2018-04-28T14:41:48.389Z,93565.61
2018-04-28T14:44:16.052Z,93570.55
2018-04-28T14:46:44.020Z,93576.11
2018-04-28T14:49:11.639Z,93581.59
2018-04-28T14:51:39.246Z,93571.03
2018-04-28T14:54:06.882Z,93572.45
2018-04-28T14:56:34.704Z,93564.06
2018-04-28T14:59:02.345Z,93573.00
2018-04-28T15:01:29.982Z,93572.66
2018-04-28T15:03:57.620Z,93569.66
2018-04-28T15:06:25.234Z,93574.13
2018-04-28T15:08:52.892Z,93573.59
2018-04-28T15:11:20.500Z,93574.37
2018-04-28T15:13:50.729Z,93578.17
2018-04-28T15:16:18.419Z,93571.01
2018-04-28T15:18:46.288Z,93575.29
2018-04-28T15:21:13.949Z,93565.41
2018-04-28T15:23:41.573Z,93562.43
2018-04-28T15:26:09.246Z,93562.41
2018-04-28T15:28:36.934Z,93563.38
2018-04-28T15:31:04.709Z,93559.97
2018-04-28T15:33:32.391Z,93561.05
2018-04-28T15:36:00.271Z,93558.23
2018-04-28T15:38:28.071Z,93554.83
2018-04-28T15:40:55.784Z,93567.79
2018-04-28T15:43:23.528Z,93565.15
2018-04-28T15:45:51.120Z,93556.91
2018-04-28T15:48:18.793Z,93565.69
2018-04-28T15:50:46.475Z,93568.69
2018-04-28T15:53:14.066Z,93563.73
2018-04-28T15:55:41.749Z,93570.80
2018-04-28T15:58:09.617Z,93574.43
2018-04-28T16:00:37.281Z,93572.35
2018-04-28T16:03:04.932Z,93571.42
2018-04-28T16:05:32.844Z,93577.70
2018-04-28T16:08:00.531Z,93571.30
2018-04-28T16:10:28.891Z,93571.61
2018-04-28T16:12:56.563Z,93564.39
2018-04-28T16:15:24.672Z,93570.53
2018-04-28T16:17:52.409Z,93573.11
2018-04-28T16:20:20.537Z,93566.31
2018-04-28T16:22:48.935Z,93572.72
2018-04-28T16:25:17.110Z,93576.91
2018-04-28T16:27:45.679Z,93566.00
2018-04-28T16:30:14.455Z,93572.98
2018-04-28T16:32:43.276Z,93575.41
2018-04-28T16:35:11.619Z,93581.86
2018-04-28T16:37:39.493Z,93577.33
2018-04-28T16:40:07.261Z,93578.45
2018-04-28T16:42:35.227Z,93583.41
2018-04-28T16:45:03.821Z,93584.78
2018-04-28T16:47:32.029Z,93585.42
2018-04-28T16:49:59.850Z,93584.70
2018-04-28T16:52:29.164Z,93590.71
2018-04-28T16:54:58.130Z,93585.30
2018-04-28T16:57:25.897Z,93596.02
2018-04-28T16:59:53.548Z,93598.23
2018-04-28T17:02:26.633Z,93607.45
2018-04-28T17:04:55.756Z,93602.98
2018-04-28T17:07:23.691Z,93606.31
2018-04-28T17:09:52.641Z,93605.13
2018-04-28T17:12:20.593Z,93615.59
2018-04-28T17:14:48.588Z,93609.31
2018-04-28T17:17:22.568Z,93616.66
2018-04-28T17:19:51.354Z,93615.30
2018-04-28T17:22:19.247Z,93615.30
2018-04-28T17:24:49.218Z,93614.81
2018-04-28T17:27:17.468Z,93623.06
2018-04-28T17:29:48.372Z,93628.97
2018-04-28T17:32:17.380Z,93626.23
2018-04-28T17:34:45.129Z,93629.18
2018-04-28T17:37:12.903Z,93631.87
2018-04-28T17:39:40.790Z,93631.43
2018-04-28T17:42:10.102Z,93638.52
2018-04-28T17:44:39.377Z,93632.88
2018-04-28T17:47:07.745Z,93635.22
2018-04-28T17:49:35.798Z,93635.30
2018-04-28T17:52:03.518Z,93632.25
2018-04-28T17:54:32.016Z,93638.98
2018-04-28T17:56:59.797Z,93636.45
2018-04-28T17:59:28.531Z,93638.28
2018-04-28T18:01:57.292Z,93643.59
2018-04-28T18:04:26.150Z,93646.87
2018-04-28T18:06:56.684Z,93642.69
2018-04-28T18:09:25.548Z,93647.81
2018-04-28T18:11:54.360Z,93649.84
2018-04-28T18:14:22.096Z,93646.73
2018-04-28T18:16:51.585Z,93652.64
2018-04-28T18:19:19.825Z,93657.44
2018-04-28T18:21:48.015Z,93663.25
2018-04-28T18:24:15.793Z,93668.25
2018-04-28T18:26:44.075Z,93671.72
2018-04-28T18:29:12.010Z,93682.86
2018-04-28T18:31:39.880Z,93677.91
2018-04-28T18:34:07.915Z,93681.44
2018-04-28T18:36:35.824Z,93678.36
2018-04-28T18:39:03.922Z,93683.16
2018-04-28T18:41:31.597Z,93688.19
2018-04-28T18:43:59.613Z,93683.28
2018-04-28T18:46:27.405Z,93682.40
2018-04-28T18:48:55.544Z,93693.34
2018-04-28T18:51:23.176Z,93692.88
2018-04-28T18:53:51.163Z,93691.34
2018-04-28T18:56:19.223Z,93693.93
2018-04-28T18:58:48.492Z,93697.00
2018-04-28T19:01:17.316Z,93705.19
2018-04-28T19:03:46.349Z,93709.34
2018-04-28T19:06:15.692Z,93706.44
2018-04-28T19:08:43.725Z,93716.17
2018-04-28T19:11:11.570Z,93719.31
2018-04-28T19:13:40.894Z,93715.41
2018-04-28T19:16:08.738Z,93714.61
2018-04-28T19:18:36.911Z,93717.62
2018-04-28T19:21:05.150Z,93718.62
2018-04-28T19:23:33.474Z,93723.36
2018-04-28T19:26:01.779Z,93730.46
2018-04-28T19:28:29.759Z,93728.98
2018-04-28T19:30:57.595Z,93734.89
2018-04-28T19:33:25.287Z,93730.69
2018-04-28T19:35:53.374Z,93739.20
2018-04-28T19:38:21.128Z,93736.61
2018-04-28T19:40:48.859Z,93724.97
2018-04-28T19:43:16.561Z,93734.30
2018-04-28T19:45:45.037Z,93740.47
2018-04-28T19:48:13.676Z,93739.81
2018-04-28T19:50:41.667Z,93738.44
2018-04-28T19:53:09.349Z,93735.30
2018-04-28T19:55:37.051Z,93747.34
2018-04-28T19:58:05.738Z,93748.73
2018-04-28T20:00:35.343Z,93745.27
2018-04-28T20:03:03.067Z,93747.12
2018-04-28T20:05:31.373Z,93741.08
2018-04-28T20:07:59.120Z,93744.80
2018-04-28T20:10:26.958Z,93746.23
2018-04-28T20:12:54.620Z,93745.28
2018-04-28T20:15:22.383Z,93753.83
2018-04-28T20:17:50.049Z,93750.33
2018-04-28T20:20:17.801Z,93755.05
2018-04-28T20:22:57.172Z,93755.57
2018-04-28T20:25:24.934Z,93755.53
2018-04-28T20:27:52.768Z,93752.13
2018-04-28T20:30:20.517Z,93750.06
2018-04-28T20:32:48.238Z,93755.44
2018-04-28T20:35:15.982Z,93762.16
2018-04-28T20:37:43.820Z,93758.74
2018-04-28T20:40:11.630Z,93761.89
2018-04-28T20:42:40.240Z,93765.95
2018-04-28T20:45:08.679Z,93770.02
2018-04-28T20:47:36.330Z,93770.69
2018-04-28T20:50:04.095Z,93775.13
2018-04-28T20:52:31.929Z,93770.81
2018-04-28T20:54:59.701Z,93777.38
2018-04-28T20:57:27.407Z,93780.53
2018-04-28T20:59:55.095Z,93787.84
2018-04-28T21:02:22.809Z,93794.09
2018-04-28T21:04:50.598Z,93792.02
2018-04-28T21:07:18.215Z,93789.60
2018-04-28T21:09:45.919Z,93788.16
2018-04-28T21:12:13.790Z,93788.67
2018-04-28T21:14:41.470Z,93795.32
2018-04-28T21:17:09.342Z,93806.17
2018-04-28T21:19:37.298Z,93802.60
2018-04-28T21:22:06.375Z,93804.85
2018-04-28T21:24:34.523Z,93790.20
2018-04-28T21:27:03.335Z,93791.78
2018-04-28T21:29:31.412Z,93792.46
2018-04-28T21:31:59.168Z,93790.43
2018-04-28T21:34:26.918Z,93782.57
2018-04-28T21:36:54.554Z,93782.81
2018-04-28T21:39:22.277Z,93783.06
2018-04-28T21:41:50.317Z,93785.91
2018-04-28T21:44:18.194Z,93788.47
2018-04-28T21:46:45.797Z,93786.47
2018-04-28T21:49:13.930Z,93782.22
2018-04-28T21:51:41.565Z,93783.00
2018-04-28T21:54:09.431Z,93785.21
2018-04-28T21:56:37.178Z,93783.55
2018-04-28T21:59:05.078Z,93783.57
2018-04-28T22:01:32.744Z,93773.43
2018-04-28T22:04:00.377Z,93780.65
2018-04-28T22:06:28.035Z,93781.84
2018-04-28T22:08:56.130Z,93792.45
2018-04-28T22:11:24.018Z,93789.48
2018-04-28T22:13:51.892Z,93781.05
2018-04-28T22:16:19.631Z,93779.22
2018-04-28T22:18:47.618Z,93777.80
2018-04-28T22:21:15.325Z,93778.50
2018-04-28T22:23:43.165Z,93772.64
2018-04-28T22:26:10.957Z,93778.18
2018-04-28T22:28:38.676Z,93785.48
2018-04-28T22:31:07.735Z,93787.02
2018-04-28T22:33:35.479Z,93778.02
2018-04-28T22:36:03.142Z,93781.16
2018-04-28T22:38:30.808Z,93778.83
2018-04-28T22:40:58.439Z,93772.16
2018-04-28T22:43:26.186Z,93779.18
2018-04-28T22:45:53.938Z,93774.72
2018-04-28T22:48:21.611Z,93773.17
2018-04-28T22:50:49.238Z,93780.84
2018-04-28T22:53:16.939Z,93779.12
2018-04-28T22:55:44.531Z,93783.67
2018-04-28T22:58:12.174Z,93781.00
2018-04-28T23:00:42.739Z,93790.21
2018-04-28T23:03:10.456Z,93784.77
2018-04-28T23:05:38.125Z,93775.52
2018-04-28T23:08:05.795Z,93775.27
2018-04-28T23:10:33.547Z,93764.83
2018-04-28T23:13:01.309Z,93771.35
2018-04-28T23:15:28.951Z,93772.77
2018-04-28T23:17:56.624Z,93777.55
2018-04-28T23:20:24.415Z,93777.36
2018-04-28T23:22:52.304Z,93771.70
2018-04-28T23:25:20.038Z,93765.75
2018-04-28T23:27:47.673Z,93766.52
2018-04-28T23:30:15.291Z,93761.98
2018-04-28T23:32:42.913Z,93763.80
2018-04-28T23:35:10.572Z,93766.56
2018-04-28T23:37:38.180Z,93766.87
2018-04-28T23:40:05.827Z,93760.20
2018-04-28T23:42:33.432Z,93762.20
2018-04-28T23:45:01.043Z,93763.73
2018-04-28T23:47:28.707Z,93762.50
2018-04-28T23:49:56.411Z,93755.67
2018-04-28T23:52:24.186Z,93749.43
2018-04-28T23:54:51.882Z,93748.64
2018-04-28T23:57:19.495Z,93749.66
2018-04-28T23:59:47.141Z,93755.67
